Time;durP1;ratioP1;P1;durP2;ratioP2;P2;SDS_P1;SDS_P2;PMS_P1;PMS_P2;Temp;Humidity;BMP_temperature;BMP_pressure;BME280_temperature;BME280_humidity;BME280_pressure;Samples;Min_cycle;Max_cycle;Signal;HPM_P1;HPM_P2
2022/03/25 00:01:01;;;;;;;6.88;4.78;;;23.30;34.90;;;;;;5023820;28;20021;-43
2022/03/25 00:03:26;;;;;;;6.30;4.30;;;23.30;34.90;;;;;;5023323;28;20036;-43
2022/03/25 00:05:52;;;;;;;5.53;4.18;;;23.30;34.90;;;;;;5027303;28;20052;-43
2022/03/25 00:08:18;;;;;;;6.47;4.80;;;23.20;34.70;;;;;;5025994;28;20033;-42
2022/03/25 00:10:44;;;;;;;4.90;3.70;;;23.20;34.70;;;;;;5026608;28;20032;-42
2022/03/25 00:13:10;;;;;;;5.47;4.25;;;23.20;34.70;;;;;;5027340;28;20406;-42
2022/03/25 00:15:36;;;;;;;5.78;4.07;;;23.20;34.60;;;;;;5026404;28;20049;-43
2022/03/25 00:18:02;;;;;;;5.90;4.15;;;23.20;34.70;;;;;;5026941;28;20264;-42
2022/03/25 00:20:28;;;;;;;6.43;4.75;;;23.20;34.80;;;;;;5027392;28;20708;-42
2022/03/25 00:22:54;;;;;;;6.20;4.60;;;23.20;34.70;;;;;;5016644;28;20057;-43
2022/03/25 00:25:19;;;;;;;6.35;4.50;;;23.20;34.70;;;;;;5026321;28;20025;-41
2022/03/25 00:27:46;;;;;;;5.38;4.13;;;23.20;34.70;;;;;;5026429;28;20030;-41
2022/03/25 00:30:12;;;;;;;5.15;3.80;;;23.20;34.70;;;;;;5026389;28;20613;-41
2022/03/25 00:32:40;;;;;;;5.80;4.28;;;23.10;34.80;;;;;;5026855;28;20547;-43
2022/03/25 00:35:06;;;;;;;5.78;4.13;;;23.10;34.80;;;;;;5026627;28;20537;-42
2022/03/25 00:37:32;;;;;;;5.50;3.95;;;23.10;34.90;;;;;;5025884;28;20489;-42
2022/03/25 00:39:58;;;;;;;6.32;4.35;;;23.10;34.80;;;;;;5026410;28;20067;-42
2022/03/25 00:42:25;;;;;;;6.38;4.32;;;23.10;34.80;;;;;;5026654;28;20581;-42
2022/03/25 00:44:50;;;;;;;6.13;4.03;;;23.10;34.80;;;;;;5026423;28;20484;-42
2022/03/25 00:47:16;;;;;;;6.15;4.00;;;23.10;34.80;;;;;;5026024;28;20025;-42
2022/03/25 00:49:42;;;;;;;5.45;4.20;;;23.10;34.80;;;;;;5026363;28;20037;-42
2022/03/25 00:52:08;;;;;;;6.05;4.07;;;23.10;34.80;;;;;;5026527;28;20034;-43
2022/03/25 00:54:36;;;;;;;5.30;3.85;;;23.10;34.70;;;;;;5026348;28;20033;-42
2022/03/25 00:57:02;;;;;;;5.18;3.75;;;23.10;34.70;;;;;;5026098;28;20117;-43
2022/03/25 00:59:29;;;;;;;6.32;3.90;;;23.10;34.70;;;;;;5025915;28;20164;-41
2022/03/25 01:01:55;;;;;;;5.93;4.15;;;23.00;34.60;;;;;;5025829;28;20091;-43
2022/03/25 01:04:21;;;;;;;6.53;4.20;;;23.00;34.60;;;;;;5026562;28;20568;-43
2022/03/25 01:06:47;;;;;;;5.40;4.20;;;23.00;34.60;;;;;;5025810;28;20124;-42
2022/03/25 01:09:12;;;;;;;5.47;3.80;;;23.00;34.60;;;;;;5025551;28;20572;-42
2022/03/25 01:11:39;;;;;;;5.57;4.20;;;23.00;34.70;;;;;;5026144;28;20044;-43
2022/03/25 01:14:05;;;;;;;5.05;3.75;;;23.00;34.60;;;;;;5026363;28;20025;-43
2022/03/25 01:16:31;;;;;;;6.05;4.18;;;23.00;34.70;;;;;;5024142;28;20098;-43
2022/03/25 01:18:56;;;;;;;5.20;4.03;;;23.00;34.70;;;;;;5026063;28;20044;-42
2022/03/25 01:21:22;;;;;;;5.93;4.00;;;23.00;34.70;;;;;;5025720;28;20026;-43
2022/03/25 01:23:48;;;;;;;5.20;3.83;;;23.00;34.60;;;;;;5025451;28;20029;-43
2022/03/25 01:26:14;;;;;;;5.70;4.03;;;23.00;34.70;;;;;;5025399;28;20033;-43
2022/03/25 01:28:41;;;;;;;5.60;3.92;;;23.00;34.70;;;;;;5025968;28;20037;-43
2022/03/25 01:31:09;;;;;;;5.68;3.92;;;23.00;34.70;;;;;;5026015;28;20116;-42
2022/03/25 01:33:37;;;;;;;4.78;3.63;;;22.90;34.70;;;;;;5025387;28;20056;-42
2022/03/25 01:36:04;;;;;;;5.15;3.78;;;22.90;34.70;;;;;;5024406;28;20033;-43
2022/03/25 01:38:30;;;;;;;5.80;3.90;;;22.90;34.70;;;;;;5025066;28;20041;-42
2022/03/25 01:40:56;;;;;;;5.57;3.85;;;22.90;34.60;;;;;;5026015;28;20029;-43
2022/03/25 01:43:22;;;;;;;4.82;3.42;;;22.90;34.60;;;;;;5024055;28;20021;-42
2022/03/25 01:45:48;;;;;;;4.90;3.38;;;22.90;34.70;;;;;;5023791;28;20024;-41
2022/03/25 01:48:16;;;;;;;6.13;3.63;;;22.90;34.60;;;;;;5025479;28;20106;-43
2022/03/25 01:50:44;;;;;;;4.97;3.75;;;22.90;34.70;;;;;;5025221;28;20033;-42
2022/03/25 01:53:23;;;;;;;5.40;3.70;;;22.90;34.80;;;;;;5024475;28;20031;-43
2022/03/25 01:55:58;;;;;;;5.00;3.30;;;22.90;35.30;;;;;;5025009;28;20021;-43
2022/03/25 01:58:25;;;;;;;5.47;3.70;;;22.80;34.60;;;;;;5024653;28;20942;-41
2022/03/25 02:00:52;;;;;;;5.15;3.55;;;22.80;34.60;;;;;;5025183;28;20084;-43
2022/03/25 02:03:18;;;;;;;6.40;3.92;;;22.80;34.60;;;;;;5025324;28;20101;-43
2022/03/25 02:05:45;;;;;;;5.25;3.58;;;22.80;34.60;;;;;;5024789;28;20021;-43
2022/03/25 02:08:11;;;;;;;6.93;3.95;;;22.80;34.50;;;;;;5024462;28;20525;-42
2022/03/25 02:10:39;;;;;;;5.93;3.88;;;22.80;34.60;;;;;;5024573;28;20053;-43
2022/03/25 02:13:05;;;;;;;5.22;3.55;;;22.80;34.60;;;;;;5025042;28;20466;-42
2022/03/25 02:15:42;;;;;;;4.55;3.28;;;22.80;34.60;;;;;;5024987;28;20041;-43
2022/03/25 02:18:14;;;;;;;4.50;3.35;;;22.80;34.60;;;;;;5024961;28;20034;-43
2022/03/25 02:20:41;;;;;;;5.57;3.80;;;22.80;34.60;;;;;;5024990;28;20101;-43
2022/03/25 02:23:08;;;;;;;5.63;4.18;;;22.70;35.20;;;;;;5024659;28;20041;-42
2022/03/25 02:25:34;;;;;;;6.47;4.70;;;22.80;34.60;;;;;;5024442;28;20037;-42
2022/03/25 02:28:02;;;;;;;6.50;4.00;;;22.80;34.60;;;;;;5024362;28;20120;-43
2022/03/25 02:30:29;;;;;;;6.03;4.05;;;22.80;34.70;;;;;;5024955;28;20022;-43
2022/03/25 02:33:00;;;;;;;5.50;3.90;;;22.80;34.70;;;;;;5024603;28;20026;-42
2022/03/25 02:35:55;;;;;;;5.03;3.70;;;22.80;34.70;;;;;;5024816;28;20489;-41
2022/03/25 02:38:24;;;;;;;5.53;3.67;;;22.80;34.70;;;;;;5019120;28;20053;-42
2022/03/25 02:40:51;;;;;;;4.85;3.67;;;22.80;34.70;;;;;;5024766;28;20511;-43
2022/03/25 02:43:17;;;;;;;5.00;3.67;;;22.80;34.60;;;;;;5024667;28;20057;-44
2022/03/25 02:45:43;;;;;;;5.70;3.92;;;22.70;34.60;;;;;;5024505;28;20086;-48
2022/03/25 02:48:09;;;;;;;5.80;3.88;;;22.70;34.60;;;;;;5024493;28;20033;-43
2022/03/25 02:50:35;;;;;;;5.50;3.97;;;22.80;34.60;;;;;;5024227;28;20033;-42
2022/03/25 02:53:02;;;;;;;5.68;4.25;;;22.70;34.60;;;;;;5024040;28;20533;-42
2022/03/25 02:55:28;;;;;;;5.60;4.18;;;22.70;34.60;;;;;;5023959;28;20533;-44
2022/03/25 02:57:55;;;;;;;5.38;3.50;;;22.70;34.60;;;;;;5023383;28;20560;-42
2022/03/25 03:00:22;;;;;;;5.35;4.00;;;22.70;34.60;;;;;;5024112;28;20021;-43
2022/03/25 03:02:48;;;;;;;5.13;4.25;;;22.70;34.60;;;;;;5024346;28;20061;-42
2022/03/25 03:05:17;;;;;;;4.78;3.60;;;22.70;34.50;;;;;;5024373;28;20026;-42
2022/03/25 03:07:47;;;;;;;5.45;3.80;;;22.70;34.60;;;;;;5022763;28;20022;-43
2022/03/25 03:10:13;;;;;;;4.85;3.55;;;22.70;34.60;;;;;;5024401;28;20037;-43
2022/03/25 03:12:41;;;;;;;5.25;3.88;;;22.70;34.60;;;;;;5024248;28;20091;-42
2022/03/25 03:15:08;;;;;;;5.53;4.22;;;22.70;34.60;;;;;;5024204;28;20505;-42
2022/03/25 03:17:34;;;;;;;5.43;3.83;;;22.70;34.60;;;;;;5023878;28;20025;-41
2022/03/25 03:20:00;;;;;;;6.53;4.40;;;22.60;34.50;;;;;;5022999;28;20045;-43
2022/03/25 03:22:26;;;;;;;5.30;3.83;;;22.60;34.50;;;;;;5022937;28;20017;-42
2022/03/25 03:24:52;;;;;;;5.47;4.18;;;22.60;34.50;;;;;;5023579;28;20028;-42
2022/03/25 03:27:18;;;;;;;5.15;4.00;;;22.60;34.50;;;;;;5022983;28;20551;-43
2022/03/25 03:29:43;;;;;;;4.93;3.50;;;22.60;34.50;;;;;;5023849;28;20061;-41
2022/03/25 03:32:09;;;;;;;5.47;3.88;;;22.60;34.50;;;;;;5024190;28;20113;-43
2022/03/25 03:34:35;;;;;;;5.53;3.70;;;22.60;34.50;;;;;;5023942;28;20084;-43
2022/03/25 03:37:01;;;;;;;5.25;4.13;;;22.60;34.40;;;;;;5023737;28;20033;-43
2022/03/25 03:39:27;;;;;;;5.05;3.50;;;22.60;34.50;;;;;;5024361;28;20108;-43
2022/03/25 03:41:53;;;;;;;5.40;4.28;;;22.60;34.50;;;;;;5009844;28;20124;-43
2022/03/25 03:44:18;;;;;;;5.45;4.00;;;22.60;34.50;;;;;;5027850;28;20083;-43
2022/03/25 03:46:44;;;;;;;5.18;4.05;;;22.60;34.50;;;;;;5026807;28;20018;-42
2022/03/25 03:49:10;;;;;;;5.00;3.70;;;22.60;34.50;;;;;;5027103;28;20045;-40
2022/03/25 03:51:36;;;;;;;5.72;3.95;;;22.60;34.50;;;;;;5027351;28;20033;-42
2022/03/25 03:54:03;;;;;;;5.55;4.18;;;22.60;34.50;;;;;;5026953;28;20035;-42
2022/03/25 03:56:29;;;;;;;5.90;4.13;;;22.60;34.50;;;;;;5027360;28;20038;-43
2022/03/25 03:58:55;;;;;;;5.60;4.28;;;22.60;34.50;;;;;;5027041;28;20634;-42
2022/03/25 04:01:20;;;;;;;5.32;3.97;;;22.60;34.50;;;;;;5027696;28;20481;-41
2022/03/25 04:03:46;;;;;;;5.57;4.22;;;22.60;34.50;;;;;;5026641;28;20067;-42
2022/03/25 04:06:12;;;;;;;5.47;3.90;;;22.60;34.50;;;;;;5027291;28;20207;-43
2022/03/25 04:08:38;;;;;;;4.63;3.53;;;22.60;34.50;;;;;;5006122;28;20076;-41
2022/03/25 04:11:04;;;;;;;5.90;4.00;;;22.60;34.50;;;;;;5007911;28;20033;-43
2022/03/25 04:13:30;;;;;;;4.70;3.60;;;22.50;34.40;;;;;;5007654;28;20068;-42
2022/03/25 04:15:55;;;;;;;4.80;3.70;;;22.50;34.50;;;;;;5007074;28;20029;-43
2022/03/25 04:18:22;;;;;;;5.60;4.05;;;22.50;34.40;;;;;;5007631;28;20488;-42
2022/03/25 04:20:50;;;;;;;5.47;4.13;;;22.50;34.40;;;;;;5005952;28;20024;-42
2022/03/25 04:23:16;;;;;;;5.47;4.05;;;22.50;34.40;;;;;;5011934;28;20022;-42
2022/03/25 04:25:42;;;;;;;5.35;3.53;;;22.50;34.40;;;;;;5026461;28;20021;-43
2022/03/25 04:28:09;;;;;;;5.30;4.20;;;22.50;34.40;;;;;;5025205;28;20688;-43
2022/03/25 04:30:37;;;;;;;5.75;4.45;;;22.50;34.40;;;;;;5027111;28;20080;-42
2022/03/25 04:33:04;;;;;;;5.88;4.00;;;22.50;34.40;;;;;;5026664;28;20120;-41
2022/03/25 04:35:30;;;;;;;5.20;4.07;;;22.50;34.40;;;;;;5026957;28;20097;-43
2022/03/25 04:37:57;;;;;;;5.60;4.03;;;22.50;34.40;;;;;;5026438;28;20040;-42
2022/03/25 04:40:26;;;;;;;5.50;4.53;;;22.50;34.50;;;;;;5026864;28;20109;-42
2022/03/25 04:42:55;;;;;;;4.90;3.95;;;22.50;34.50;;;;;;5026528;28;20148;-43
2022/03/25 04:45:21;;;;;;;5.43;4.47;;;22.50;34.40;;;;;;5026678;28;20060;-42
2022/03/25 04:47:47;;;;;;;5.50;4.35;;;22.40;34.30;;;;;;5026266;28;20083;-42
2022/03/25 04:50:13;;;;;;;5.93;4.32;;;22.40;34.30;;;;;;5025621;28;20045;-40
2022/03/25 04:52:39;;;;;;;6.82;4.90;;;22.40;34.30;;;;;;5025734;28;20033;-42
2022/03/25 04:55:06;;;;;;;5.38;3.90;;;22.40;34.30;;;;;;5025189;28;20036;-43
2022/03/25 04:57:31;;;;;;;5.55;4.15;;;22.40;34.30;;;;;;5024723;28;20041;-43
2022/03/25 04:59:57;;;;;;;6.78;4.57;;;22.40;34.30;;;;;;5026048;28;20025;-43
2022/03/25 05:02:24;;;;;;;5.35;3.97;;;22.40;34.20;;;;;;5025391;28;20034;-43
2022/03/25 05:04:49;;;;;;;5.22;3.97;;;22.40;34.30;;;;;;5023761;28;20101;-44
2022/03/25 05:07:16;;;;;;;5.18;4.10;;;22.40;34.20;;;;;;5025427;28;20116;-43
2022/03/25 05:09:43;;;;;;;6.53;4.43;;;22.40;34.30;;;;;;5022104;28;20038;-43
2022/03/25 05:12:09;;;;;;;5.90;4.65;;;22.40;34.30;;;;;;5025461;28;20041;-44
2022/03/25 05:14:36;;;;;;;5.72;4.32;;;22.40;34.30;;;;;;5025779;28;20026;-43
2022/03/25 05:17:01;;;;;;;5.38;4.13;;;22.40;34.40;;;;;;5025056;28;20104;-42
2022/03/25 05:19:27;;;;;;;5.85;4.35;;;22.40;34.70;;;;;;5025426;28;20104;-42
2022/03/25 05:21:53;;;;;;;6.28;4.22;;;22.40;34.70;;;;;;5025334;28;20497;-49
2022/03/25 05:24:19;;;;;;;5.50;3.72;;;22.40;34.70;;;;;;5024783;28;20049;-42
2022/03/25 05:26:45;;;;;;;5.45;4.10;;;22.40;34.70;;;;;;5024241;28;20041;-42
2022/03/25 05:29:10;;;;;;;5.85;3.90;;;22.50;34.90;;;;;;5024337;28;20053;-42
2022/03/25 05:31:37;;;;;;;5.28;3.72;;;22.50;35.00;;;;;;5024394;28;20022;-43
2022/03/25 05:34:04;;;;;;;5.25;3.90;;;22.50;35.20;;;;;;5024262;28;20075;-43
2022/03/25 05:36:33;;;;;;;5.07;3.85;;;22.60;35.30;;;;;;5024544;28;20025;-44
2022/03/25 05:39:00;;;;;;;5.30;4.25;;;22.60;35.30;;;;;;5024122;28;20029;-42
2022/03/25 05:41:27;;;;;;;5.40;4.00;;;22.70;35.30;;;;;;5024432;28;20022;-43
2022/03/25 05:43:53;;;;;;;5.72;4.30;;;22.70;35.20;;;;;;5024169;28;20056;-43
2022/03/25 05:46:19;;;;;;;6.22;4.63;;;22.80;35.10;;;;;;5014912;28;20033;-43
2022/03/25 05:48:46;;;;;;;5.00;3.90;;;22.80;35.40;;;;;;5022188;28;20041;-42
2022/03/25 05:51:12;;;;;;;6.25;3.45;;;22.80;35.20;;;;;;5006556;28;20021;-43
2022/03/25 05:53:39;;;;;;;5.35;4.20;;;22.90;35.30;;;;;;5023330;28;20109;-45
2022/03/25 05:56:06;;;;;;;5.85;4.10;;;22.90;35.20;;;;;;5022393;28;20063;-45
2022/03/25 05:58:33;;;;;;;7.18;4.45;;;23.00;35.10;;;;;;5024320;28;20025;-47
2022/03/25 06:00:59;;;;;;;6.38;4.35;;;23.00;35.00;;;;;;5022963;28;20052;-45
2022/03/25 06:03:26;;;;;;;5.70;4.15;;;23.00;34.80;;;;;;5021553;28;20030;-47
2022/03/25 06:05:52;;;;;;;7.82;4.65;;;23.10;34.60;;;;;;5023422;28;20664;-45
2022/03/25 06:08:19;;;;;;;8.02;4.35;;;23.10;34.60;;;;;;5023419;28;20565;-45
2022/03/25 06:10:44;;;;;;;6.38;4.80;;;23.20;34.60;;;;;;5022551;28;20030;-47
2022/03/25 06:13:10;;;;;;;6.07;4.07;;;23.20;34.50;;;;;;5024934;28;20027;-45
2022/03/25 06:15:36;;;;;;;6.68;4.70;;;23.20;34.50;;;;;;5026492;28;20367;-48
2022/03/25 06:18:01;;;;;;;5.55;4.15;;;23.30;34.50;;;;;;5033051;28;20517;-46
2022/03/25 06:20:28;;;;;;;5.60;4.10;;;23.30;34.50;;;;;;5025253;28;20029;-47
2022/03/25 06:22:54;;;;;;;5.20;4.35;;;23.30;34.40;;;;;;5024686;28;20029;-47
2022/03/25 06:25:20;;;;;;;5.97;4.03;;;23.30;34.40;;;;;;5019027;28;20030;-46
2022/03/25 06:27:55;;;;;;;5.60;4.20;;;23.30;34.30;;;;;;5024034;28;20030;-46
2022/03/25 06:30:25;;;;;;;5.47;4.05;;;23.40;34.20;;;;;;5022600;28;20391;-47
2022/03/25 06:32:51;;;;;;;7.43;4.60;;;23.30;34.20;;;;;;5024146;28;20112;-46
2022/03/25 06:35:17;;;;;;;6.82;4.63;;;23.40;34.10;;;;;;5022898;28;20540;-47
2022/03/25 06:37:44;;;;;;;5.53;4.00;;;23.40;34.10;;;;;;5023888;28;20028;-45
2022/03/25 06:40:11;;;;;;;5.90;4.53;;;23.40;34.00;;;;;;5024319;28;20543;-47
2022/03/25 06:42:38;;;;;;;6.05;4.63;;;23.40;33.90;;;;;;5024338;28;20108;-47
2022/03/25 06:45:06;;;;;;;6.10;4.70;;;23.40;33.90;;;;;;5024222;28;20018;-45
2022/03/25 06:47:32;;;;;;;6.40;4.32;;;23.40;33.90;;;;;;5023592;28;20061;-46
2022/03/25 06:49:58;;;;;;;7.00;5.28;;;23.40;33.80;;;;;;5022839;28;20037;-47
2022/03/25 06:52:24;;;;;;;7.53;4.90;;;23.40;34.40;;;;;;5023610;28;20064;-48
2022/03/25 06:54:50;;;;;;;6.55;4.22;;;23.40;33.80;;;;;;5023388;28;20095;-46
2022/03/25 06:57:16;;;;;;;6.05;4.60;;;23.40;33.70;;;;;;5023111;28;20689;-47
2022/03/25 06:59:43;;;;;;;5.65;4.03;;;23.40;33.70;;;;;;5023375;28;20144;-47
2022/03/25 07:02:09;;;;;;;5.53;4.30;;;23.50;33.80;;;;;;5023156;28;20270;-45
2022/03/25 07:04:36;;;;;;;6.60;4.60;;;23.40;33.70;;;;;;5023584;28;20037;-47
2022/03/25 07:07:04;;;;;;;6.90;4.95;;;23.40;33.60;;;;;;5023664;28;20516;-46
2022/03/25 07:09:31;;;;;;;6.13;4.30;;;23.40;33.60;;;;;;5022533;28;20545;-46
2022/03/25 07:11:57;;;;;;;5.07;4.00;;;23.40;33.60;;;;;;5024042;28;20040;-45
2022/03/25 07:14:23;;;;;;;6.20;4.20;;;23.40;33.60;;;;;;5025334;28;20040;-45
2022/03/25 07:16:49;;;;;;;5.50;4.82;;;23.40;33.50;;;;;;5027812;28;20033;-46
2022/03/25 07:19:15;;;;;;;6.45;4.85;;;23.40;33.50;;;;;;5026594;28;20034;-47
2022/03/25 07:21:40;;;;;;;4.90;3.58;;;23.40;33.50;;;;;;5027339;28;20025;-46
2022/03/25 07:24:06;;;;;;;6.32;4.55;;;23.40;33.50;;;;;;5027140;28;20029;-47
2022/03/25 07:26:32;;;;;;;5.85;4.47;;;23.40;33.50;;;;;;5027133;28;20038;-48
2022/03/25 07:28:58;;;;;;;7.18;4.80;;;23.40;33.50;;;;;;5027450;28;20033;-47
2022/03/25 07:31:28;;;;;;;5.65;4.47;;;23.40;33.50;;;;;;5027448;28;20115;-47
2022/03/25 07:33:56;;;;;;;5.30;4.20;;;23.40;33.50;;;;;;5027075;28;20033;-47
2022/03/25 07:36:22;;;;;;;6.10;4.47;;;23.40;33.60;;;;;;5026809;28;20033;-46
2022/03/25 07:38:48;;;;;;;6.95;4.75;;;23.40;33.70;;;;;;5027083;28;20862;-46
2022/03/25 07:41:14;;;;;;;6.15;4.78;;;23.40;33.80;;;;;;5026865;28;20151;-48
2022/03/25 07:43:40;;;;;;;6.18;4.78;;;23.30;33.80;;;;;;5026502;28;20029;-46
2022/03/25 07:46:06;;;;;;;5.95;4.75;;;23.40;33.90;;;;;;5026667;28;20025;-44
2022/03/25 07:48:32;;;;;;;6.18;4.72;;;23.40;34.00;;;;;;5026021;28;20529;-47
2022/03/25 07:50:59;;;;;;;6.00;4.43;;;23.40;34.10;;;;;;5025216;28;20529;-44
2022/03/25 07:53:25;;;;;;;6.63;4.88;;;23.40;34.00;;;;;;5025018;28;20036;-45
2022/03/25 07:55:51;;;;;;;5.88;4.25;;;23.40;34.00;;;;;;5024996;28;20432;-46
2022/03/25 07:58:21;;;;;;;6.82;4.80;;;23.30;34.00;;;;;;5025013;28;20472;-45
2022/03/25 08:00:48;;;;;;;6.75;4.82;;;23.30;34.00;;;;;;5021658;28;20025;-44
2022/03/25 08:03:16;;;;;;;7.55;4.88;;;23.30;33.90;;;;;;5024671;28;20030;-47
2022/03/25 08:05:42;;;;;;;9.98;5.05;;;23.30;33.90;;;;;;5022952;28;20060;-46
2022/03/25 08:08:09;;;;;;;6.90;5.22;;;23.30;33.80;;;;;;5023628;28;20029;-46
2022/03/25 08:10:36;;;;;;;6.65;5.20;;;23.30;33.80;;;;;;5024511;28;20025;-46
2022/03/25 08:13:02;;;;;;;7.78;5.57;;;23.30;33.80;;;;;;5025031;28;20766;-47
2022/03/25 08:15:30;;;;;;;7.13;5.53;;;23.30;33.70;;;;;;5024766;28;20029;-45
2022/03/25 08:18:07;;;;;;;7.00;5.50;;;23.30;33.60;;;;;;5024577;28;20026;-47
2022/03/25 08:20:41;;;;;;;7.00;5.35;;;23.30;33.70;;;;;;5024176;28;20179;-45
2022/03/25 08:27:48;;;;;;;6.65;5.32;;;23.30;33.70;;;;;;5023877;28;20088;-44
2022/03/25 08:28:50;;;;;;;7.30;5.38;;;23.30;33.80;;;;;;5023996;28;20105;-45
2022/03/25 08:31:16;;;;;;;8.88;6.25;;;23.30;33.70;;;;;;5025068;28;20052;-46
2022/03/25 08:33:43;;;;;;;8.77;5.95;;;23.30;33.70;;;;;;5023751;28;20013;-46
2022/03/25 08:36:09;;;;;;;6.40;5.07;;;23.20;33.60;;;;;;5024041;28;20055;-45
2022/03/25 08:38:35;;;;;;;5.68;4.75;;;23.20;33.60;;;;;;5025205;28;20025;-47
2022/03/25 08:41:00;;;;;;;7.88;5.43;;;23.30;33.80;;;;;;5025512;28;20044;-45
2022/03/25 08:43:26;;;;;;;7.78;5.38;;;23.30;33.90;;;;;;5024893;28;20048;-45
2022/03/25 08:45:53;;;;;;;7.05;5.35;;;23.30;33.90;;;;;;5024508;28;20037;-45
2022/03/25 08:48:18;;;;;;;7.65;5.18;;;23.30;33.90;;;;;;5024192;28;20480;-46
2022/03/25 08:50:44;;;;;;;6.95;4.75;;;23.30;33.90;;;;;;4984739;28;1183256;-48
2022/03/25 08:53:10;;;;;;;7.25;5.35;;;23.30;33.90;;;;;;5026493;28;20032;-44
2022/03/25 08:55:36;;;;;;;7.57;5.28;;;23.30;33.80;;;;;;5026475;28;20517;-47
2022/03/25 08:58:03;;;;;;;6.25;5.18;;;23.40;33.80;;;;;;5025481;28;20025;-45
2022/03/25 09:00:29;;;;;;;6.70;5.18;;;23.40;33.80;;;;;;5026377;28;20076;-47
2022/03/25 09:02:54;;;;;;;7.65;4.78;;;23.40;33.80;;;;;;5026062;28;20018;-46
2022/03/25 09:05:20;;;;;;;6.70;5.85;;;23.40;33.70;;;;;;5026188;28;20748;-46
2022/03/25 09:07:46;;;;;;;7.43;5.53;;;23.40;33.70;;;;;;5025756;28;20540;-46
2022/03/25 09:10:16;;;;;;;7.35;5.35;;;23.40;33.70;;;;;;5025077;28;20423;-46
2022/03/25 09:12:43;;;;;;;6.40;5.03;;;23.40;33.60;;;;;;5025855;28;20060;-48
2022/03/25 09:15:10;;;;;;;7.45;5.60;;;23.40;33.60;;;;;;5026141;28;20033;-44
2022/03/25 09:17:36;;;;;;;8.30;5.80;;;23.40;33.60;;;;;;5024798;28;20048;-45
2022/03/25 09:20:06;;;;;;;7.95;5.43;;;23.40;33.60;;;;;;5026046;28;20516;-46
2022/03/25 09:22:33;;;;;;;7.45;5.70;;;23.40;33.50;;;;;;5025429;28;20033;-46
2022/03/25 09:24:59;;;;;;;6.60;5.53;;;23.40;33.40;;;;;;5025266;28;20040;-47
2022/03/25 09:27:25;;;;;;;7.28;5.40;;;23.40;33.50;;;;;;5025569;28;20096;-47
2022/03/25 09:29:51;;;;;;;7.57;5.75;;;23.40;33.40;;;;;;5025840;28;20109;-48
2022/03/25 09:32:17;;;;;;;6.57;5.32;;;23.40;33.40;;;;;;5025498;28;20055;-47
2022/03/25 09:37:27;;;;;;;6.13;4.60;;;23.40;33.40;;;;;;5023607;28;20347;-47
2022/03/25 09:39:52;;;;;;;7.00;5.30;;;23.40;33.40;;;;;;5024477;28;20517;-45
2022/03/25 09:42:19;;;;;;;6.45;5.13;;;23.40;33.40;;;;;;5025210;28;20025;-46
2022/03/25 09:44:46;;;;;;;6.40;4.68;;;23.40;33.40;;;;;;5025199;28;20417;-47
2022/03/25 09:47:16;;;;;;;7.10;5.47;;;23.40;33.30;;;;;;5024295;28;20060;-44
2022/03/25 09:49:42;;;;;;;7.20;5.40;;;23.40;33.20;;;;;;5024233;28;20068;-45
2022/03/25 09:52:09;;;;;;;7.45;5.93;;;23.40;33.20;;;;;;5025064;28;20033;-45
2022/03/25 09:54:35;;;;;;;6.10;4.72;;;23.40;33.30;;;;;;5025229;28;20112;-47
2022/03/25 09:57:02;;;;;;;6.53;4.20;;;23.40;33.30;;;;;;5024323;28;20104;-47
2022/03/25 09:59:28;;;;;;;6.95;5.10;;;23.50;33.40;;;;;;5025064;28;20029;-45
2022/03/25 10:01:54;;;;;;;6.45;4.60;;;23.40;33.30;;;;;;5024871;28;20110;-45
2022/03/25 10:04:42;;;;;;;6.03;4.50;;;23.40;33.40;;;;;;5024815;28;20033;-44
2022/03/25 10:07:16;;;;;;;6.43;4.40;;;23.50;33.50;;;;;;5024523;28;20033;-45
2022/03/25 10:09:42;;;;;;;6.88;5.05;;;23.50;33.50;;;;;;5024682;28;20034;-45
2022/03/25 10:12:22;;;;;;;6.55;4.95;;;23.50;33.40;;;;;;5025171;28;20133;-45
2022/03/25 10:14:49;;;;;;;6.93;4.45;;;23.50;33.40;;;;;;5024628;28;20175;-47
2022/03/25 10:17:15;;;;;;;7.25;5.03;;;23.50;33.50;;;;;;5024707;28;20029;-46
2022/03/25 10:19:53;;;;;;;6.85;4.57;;;23.50;33.50;;;;;;5024237;28;20022;-46
2022/03/25 10:22:19;;;;;;;5.85;4.40;;;23.50;33.40;;;;;;5024231;28;20088;-46
2022/03/25 10:24:52;;;;;;;6.43;4.68;;;23.50;33.40;;;;;;5022742;28;20666;-46
2022/03/25 10:27:23;;;;;;;6.60;5.20;;;23.50;33.40;;;;;;5022275;28;20479;-45
2022/03/25 10:29:50;;;;;;;6.63;4.68;;;23.50;33.40;;;;;;5024236;28;20060;-47
2022/03/25 10:32:24;;;;;;;6.10;4.68;;;23.50;33.30;;;;;;5024399;28;20067;-45
2022/03/25 10:35:10;;;;;;;7.10;4.43;;;23.50;33.40;;;;;;5023988;28;20382;-46
2022/03/25 10:37:55;;;;;;;5.95;4.05;;;23.60;33.30;;;;;;5024451;28;20037;-47
2022/03/25 10:40:22;;;;;;;5.68;4.10;;;23.50;33.30;;;;;;5023759;28;20565;-46
2022/03/25 10:43:08;;;;;;;6.47;4.28;;;23.50;33.30;;;;;;5024219;28;20033;-47
2022/03/25 10:45:40;;;;;;;5.93;4.13;;;23.50;33.20;;;;;;5024485;28;20040;-47
2022/03/25 10:48:20;;;;;;;6.50;4.80;;;23.50;33.10;;;;;;5022707;28;20041;-46
2022/03/25 10:51:09;;;;;;;5.63;4.40;;;23.60;33.10;;;;;;5024481;28;20067;-46
2022/03/25 10:53:37;;;;;;;6.13;4.60;;;23.50;33.10;;;;;;5023845;28;20152;-48
2022/03/25 10:56:08;;;;;;;5.25;3.63;;;23.60;33.00;;;;;;5023943;28;20219;-45
2022/03/25 10:58:34;;;;;;;5.85;4.50;;;23.50;33.00;;;;;;5024316;28;20455;-46
2022/03/25 11:01:01;;;;;;;5.45;4.30;;;23.50;33.10;;;;;;5024149;28;20025;-46
2022/03/25 11:03:27;;;;;;;5.68;3.70;;;23.50;33.00;;;;;;5023560;28;20390;-47
2022/03/25 11:05:53;;;;;;;5.95;4.20;;;23.60;33.10;;;;;;5023487;28;20033;-47
2022/03/25 11:08:19;;;;;;;6.35;4.90;;;23.60;33.00;;;;;;5023937;28;20425;-47
2022/03/25 11:10:46;;;;;;;5.70;4.25;;;23.60;33.00;;;;;;5023948;28;20045;-46
2022/03/25 11:13:11;;;;;;;5.45;4.28;;;23.50;33.00;;;;;;5023489;28;20108;-44
2022/03/25 11:15:39;;;;;;;6.63;4.55;;;23.60;33.00;;;;;;5023796;28;20112;-46
2022/03/25 11:18:05;;;;;;;6.10;4.53;;;23.60;32.90;;;;;;5023648;28;20026;-46
2022/03/25 11:20:31;;;;;;;5.28;4.25;;;23.60;33.00;;;;;;5023157;28;20468;-47
2022/03/25 11:23:18;;;;;;;5.18;4.03;;;23.60;33.00;;;;;;5023767;28;20105;-45
2022/03/25 11:25:51;;;;;;;5.75;4.15;;;23.60;33.00;;;;;;5023995;28;20040;-46
2022/03/25 11:28:19;;;;;;;5.32;3.90;;;23.60;33.00;;;;;;5024326;28;20242;-45
2022/03/25 11:30:56;;;;;;;5.20;3.88;;;23.60;33.10;;;;;;5025435;28;20252;-46
2022/03/25 11:33:21;;;;;;;5.45;4.18;;;23.60;33.00;;;;;;5023226;28;20033;-45
2022/03/25 11:35:47;;;;;;;5.90;4.13;;;23.60;33.10;;;;;;5022455;28;20666;-46
2022/03/25 11:38:19;;;;;;;5.88;3.90;;;23.60;33.10;;;;;;5023618;28;20109;-47
2022/03/25 11:40:47;;;;;;;5.10;3.73;;;23.60;33.10;;;;;;5023987;28;20034;-45
2022/03/25 11:43:28;;;;;;;5.65;3.85;;;23.60;33.10;;;;;;5023937;28;20497;-46
2022/03/25 11:45:59;;;;;;;5.25;3.80;;;23.60;33.00;;;;;;5023720;28;20030;-45
2022/03/25 11:48:25;;;;;;;4.88;3.28;;;23.60;33.00;;;;;;5023558;28;20036;-46
2022/03/25 11:50:52;;;;;;;5.20;3.92;;;23.60;32.90;;;;;;5023629;28;20474;-46
2022/03/25 11:53:22;;;;;;;4.80;3.17;;;23.60;32.90;;;;;;5023224;28;20037;-46
2022/03/25 11:56:06;;;;;;;5.47;3.55;;;23.60;32.80;;;;;;5023370;28;20039;-46
2022/03/25 11:58:55;;;;;;;5.25;3.50;;;23.60;32.80;;;;;;5023515;28;20064;-46
2022/03/25 12:01:21;;;;;;;5.40;3.47;;;23.60;32.80;;;;;;5021628;28;20034;-47
2022/03/25 12:03:49;;;;;;;5.20;3.60;;;23.70;32.90;;;;;;5027360;28;20025;-46
2022/03/25 12:06:20;;;;;;;4.45;3.35;;;23.70;32.90;;;;;;5027074;28;20101;-45
2022/03/25 12:09:15;;;;;;;5.13;3.60;;;23.70;32.90;;;;;;5026576;28;20076;-46
2022/03/25 12:11:58;;;;;;;5.70;3.30;;;23.70;32.90;;;;;;5026857;28;20030;-47
2022/03/25 12:14:27;;;;;;;4.35;3.17;;;23.70;32.80;;;;;;5026274;28;20082;-46
2022/03/25 12:16:54;;;;;;;5.30;3.33;;;23.80;32.80;;;;;;5026844;28;20489;-46
2022/03/25 12:19:44;;;;;;;4.90;3.78;;;23.80;32.80;;;;;;5027091;28;20489;-47
2022/03/25 12:22:18;;;;;;;4.68;3.47;;;23.80;33.40;;;;;;5027174;28;20033;-46
2022/03/25 12:24:52;;;;;;;5.07;3.63;;;23.80;32.70;;;;;;5022054;28;20109;-46
2022/03/25 12:27:19;;;;;;;5.32;3.95;;;23.80;32.70;;;;;;5021368;28;20112;-46
2022/03/25 12:29:54;;;;;;;5.93;3.92;;;23.80;32.80;;;;;;5021689;28;20101;-48
2022/03/25 12:32:24;;;;;;;6.30;3.30;;;23.90;32.90;;;;;;5024667;28;20032;-46
2022/03/25 12:35:02;;;;;;;5.47;3.75;;;23.90;33.80;;;;;;5020310;28;20029;-48
2022/03/25 12:37:53;;;;;;;6.57;3.35;;;23.90;33.30;;;;;;5022655;28;20025;-47
2022/03/25 12:40:27;;;;;;;4.72;3.15;;;23.90;33.40;;;;;;5023593;28;20025;-46
2022/03/25 12:43:02;;;;;;;5.35;3.30;;;24.00;33.40;;;;;;5023465;28;20348;-46
2022/03/25 12:45:32;;;;;;;5.22;3.92;;;24.00;33.10;;;;;;5023448;28;20064;-48
2022/03/25 12:48:09;;;;;;;6.18;3.95;;;24.00;32.80;;;;;;5024689;28;20030;-48
2022/03/25 12:50:35;;;;;;;6.53;4.00;;;24.10;32.80;;;;;;5025367;28;20041;-47
2022/03/25 12:53:04;;;;;;;4.43;3.45;;;24.10;32.70;;;;;;5023976;28;20095;-47
2022/03/25 12:55:32;;;;;;;5.20;3.75;;;24.20;32.70;;;;;;5011511;28;20057;-46
2022/03/25 12:58:09;;;;;;;5.20;3.45;;;24.20;32.60;;;;;;5003516;28;20505;-47